createdAt,value
2023-03-17T00:00:47.309Z,98733.47
2023-03-17T00:03:30.348Z,98730.25
2023-03-17T00:06:00.500Z,98719.06
2023-03-17T00:08:34.563Z,98726.09
2023-03-17T00:11:02.776Z,98719.22
2023-03-17T00:13:33.839Z,98723.69
2023-03-17T00:16:07.600Z,98725.38
2023-03-17T00:18:35.599Z,98735.63
2023-03-17T00:21:03.201Z,98727.88
2023-03-17T00:23:30.670Z,98740.69
2023-03-17T00:25:58.207Z,98735.63
2023-03-17T00:28:28.118Z,98742.50
2023-03-17T00:31:01.076Z,98740.69
2023-03-17T00:33:33.384Z,98735.47
2023-03-17T00:36:01.788Z,98731.94
2023-03-17T00:38:29.812Z,98738.78
2023-03-17T00:40:57.312Z,98738.84
2023-03-17T00:43:24.772Z,98741.44
2023-03-17T00:45:52.398Z,98745.75
2023-03-17T00:48:21.887Z,98747.53
2023-03-17T00:50:51.049Z,98746.78
2023-03-17T00:53:21.750Z,98745.03
2023-03-17T00:55:50.103Z,98742.47
2023-03-17T00:58:33.561Z,98740.78
2023-03-17T01:01:02.370Z,98733.84
2023-03-17T01:03:29.869Z,98720.13
2023-03-17T01:05:57.973Z,98716.75
2023-03-17T01:08:26.331Z,98707.34
2023-03-17T01:10:54.719Z,98716.06
2023-03-17T01:13:22.260Z,98719.50
2023-03-17T01:15:51.380Z,98715.47
2023-03-17T01:18:22.890Z,98706.84
2023-03-17T01:20:51.896Z,98703.44
2023-03-17T01:23:19.270Z,98710.56
2023-03-17T01:25:46.867Z,98710.72
2023-03-17T01:28:18.087Z,98700.75
2023-03-17T01:30:47.086Z,98706.75
2023-03-17T01:33:15.191Z,98708.41
2023-03-17T01:35:45.946Z,98699.00
2023-03-17T01:38:14.225Z,98698.88
2023-03-17T01:40:50.645Z,98702.25
2023-03-17T01:43:30.903Z,98704.13
2023-03-17T01:46:31.194Z,98702.44
2023-03-17T01:49:37.591Z,98706.81
2023-03-17T01:52:21.975Z,98705.16
2023-03-17T01:54:58.992Z,98707.03
2023-03-17T01:57:56.573Z,98705.16
2023-03-17T02:00:26.631Z,98714.59
2023-03-17T02:02:57.137Z,98705.19
2023-03-17T02:05:31.663Z,98695.78
2023-03-17T02:08:00.260Z,98705.50
2023-03-17T02:10:30.198Z,98700.41
2023-03-17T02:13:05.710Z,98696.81
2023-03-17T02:15:46.596Z,98688.97
2023-03-17T02:18:15.100Z,98688.97
2023-03-17T02:21:10.561Z,98675.31
2023-03-17T02:23:38.102Z,98671.91
2023-03-17T02:26:05.420Z,98666.91
2023-03-17T02:28:34.437Z,98658.22
2023-03-17T02:31:01.829Z,98657.50
2023-03-17T02:33:29.362Z,98662.66
2023-03-17T02:35:57.225Z,98658.28
2023-03-17T02:38:24.834Z,98665.16
2023-03-17T02:40:52.676Z,98656.69
2023-03-17T02:43:20.782Z,98642.88
2023-03-17T02:45:48.113Z,98639.34
2023-03-17T02:48:16.106Z,98641.25
2023-03-17T02:50:43.597Z,98642.25
2023-03-17T02:53:11.309Z,98639.44
2023-03-17T02:55:38.676Z,98625.06
2023-03-17T02:58:06.281Z,98619.00
2023-03-17T03:00:34.060Z,98621.63
2023-03-17T03:03:01.629Z,98621.69
2023-03-17T03:05:28.967Z,98630.22
2023-03-17T03:07:56.593Z,98633.78
2023-03-17T03:10:23.903Z,98647.47
2023-03-17T03:12:52.166Z,98658.53
2023-03-17T03:15:20.993Z,98666.13
2023-03-17T03:17:48.659Z,98670.50
2023-03-17T03:20:16.359Z,98660.16
2023-03-17T03:22:43.965Z,98656.66
2023-03-17T03:25:11.304Z,98659.19
2023-03-17T03:27:38.837Z,98655.75
2023-03-17T03:30:08.350Z,98653.91
2023-03-17T03:32:35.911Z,98666.19
2023-03-17T03:35:04.456Z,98652.63
2023-03-17T03:37:32.068Z,98640.72
2023-03-17T03:39:59.324Z,98651.16
2023-03-17T03:42:26.918Z,98658.09
2023-03-17T03:44:54.361Z,98656.38
2023-03-17T03:47:21.990Z,98652.16
2023-03-17T03:49:49.292Z,98658.19
2023-03-17T03:52:16.884Z,98679.50
2023-03-17T03:54:44.257Z,98670.16
2023-03-17T03:57:12.059Z,98662.63
2023-03-17T03:59:39.484Z,98666.72
2023-03-17T04:02:09.536Z,98661.81
2023-03-17T04:04:37.209Z,98660.16
2023-03-17T04:07:04.942Z,98665.28
2023-03-17T04:09:32.157Z,98657.53
2023-03-17T04:11:59.987Z,98646.25
2023-03-17T04:14:28.604Z,98652.16
2023-03-17T04:16:56.361Z,98654.63
2023-03-17T04:19:23.599Z,98653.72
2023-03-17T04:21:53.579Z,98652.88
2023-03-17T04:24:21.884Z,98656.50
2023-03-17T04:26:49.450Z,98646.28
2023-03-17T04:29:17.046Z,98639.41
2023-03-17T04:31:44.747Z,98645.44
2023-03-17T04:34:18.772Z,98651.56
2023-03-17T04:36:48.378Z,98649.81
2023-03-17T04:39:16.773Z,98651.78
2023-03-17T04:41:44.321Z,98661.22
2023-03-17T04:44:11.681Z,98662.00
2023-03-17T04:46:39.401Z,98655.91
2023-03-17T04:49:07.073Z,98658.41
2023-03-17T04:51:36.880Z,98665.16
2023-03-17T04:54:04.819Z,98666.00
2023-03-17T04:56:32.705Z,98655.72
2023-03-17T04:59:00.208Z,98655.91
2023-03-17T05:01:27.921Z,98661.78
2023-03-17T05:03:55.332Z,98665.16
2023-03-17T05:06:23.079Z,98666.50
2023-03-17T05:08:50.586Z,98664.28
2023-03-17T05:11:18.471Z,98674.50
2023-03-17T05:13:46.113Z,98664.06
2023-03-17T05:16:13.969Z,98669.31
2023-03-17T05:18:42.061Z,98666.72
2023-03-17T05:21:10.689Z,98665.09
2023-03-17T05:23:38.489Z,98666.31
2023-03-17T05:26:06.722Z,98674.13
2023-03-17T05:28:34.600Z,98660.31
2023-03-17T05:31:02.663Z,98665.44
2023-03-17T05:33:30.088Z,98667.81
2023-03-17T05:35:57.681Z,98665.06
2023-03-17T05:38:25.257Z,98663.06
2023-03-17T05:40:52.996Z,98662.78
2023-03-17T05:43:21.060Z,98658.16
2023-03-17T05:45:50.703Z,98668.34
2023-03-17T05:48:18.135Z,98668.13
2023-03-17T05:50:46.043Z,98662.72
2023-03-17T05:53:13.392Z,98659.09
2023-03-17T05:55:41.558Z,98664.94
2023-03-17T05:58:09.638Z,98668.38
2023-03-17T06:00:37.909Z,98671.50
2023-03-17T06:03:05.686Z,98667.75
2023-03-17T06:05:33.875Z,98670.88
2023-03-17T06:08:02.102Z,98673.34
2023-03-17T06:10:29.953Z,98671.13
2023-03-17T06:12:59.015Z,98670.72
2023-03-17T06:15:26.728Z,98683.16
2023-03-17T06:17:54.049Z,98670.09
2023-03-17T06:20:22.108Z,98670.53
2023-03-17T06:23:03.171Z,98670.41
2023-03-17T06:25:35.579Z,98674.50
2023-03-17T06:28:05.673Z,98686.91
2023-03-17T06:30:35.425Z,98676.59
2023-03-17T06:33:04.215Z,98674.78
2023-03-17T06:35:33.410Z,98670.31
2023-03-17T06:38:02.289Z,98660.72
2023-03-17T06:40:30.599Z,98670.03
2023-03-17T06:42:58.663Z,98679.34
2023-03-17T06:45:26.772Z,98679.28
2023-03-17T06:47:54.103Z,98671.50
2023-03-17T06:50:21.902Z,98675.63
2023-03-17T06:52:49.432Z,98675.53
2023-03-17T06:55:17.659Z,98677.13
2023-03-17T06:57:45.023Z,98673.25
2023-03-17T07:00:14.329Z,98672.63
2023-03-17T07:02:42.300Z,98685.69
2023-03-17T07:05:10.245Z,98683.81
2023-03-17T07:07:37.786Z,98684.38
2023-03-17T07:10:07.060Z,98698.72
2023-03-17T07:12:34.448Z,98690.06
2023-03-17T07:15:02.148Z,98707.06
2023-03-17T07:17:30.289Z,98704.03
2023-03-17T07:19:57.841Z,98702.59
2023-03-17T07:22:25.274Z,98704.56
2023-03-17T07:24:53.339Z,98695.84
2023-03-17T07:27:23.091Z,98690.53
2023-03-17T07:29:51.364Z,98686.31
2023-03-17T07:32:19.348Z,98693.38
2023-03-17T07:34:46.879Z,98690.28
2023-03-17T07:37:14.461Z,98684.47
2023-03-17T07:39:42.082Z,98682.94
2023-03-17T07:42:15.506Z,98683.81
2023-03-17T07:44:43.394Z,98674.38
2023-03-17T07:47:14.805Z,98694.22
2023-03-17T07:49:42.664Z,98686.59
2023-03-17T07:52:11.317Z,98685.50
2023-03-17T07:54:42.657Z,98699.00
2023-03-17T07:57:11.021Z,98689.63
2023-03-17T07:59:41.732Z,98687.88
2023-03-17T08:02:16.670Z,98690.97
2023-03-17T08:04:46.033Z,98700.63
2023-03-17T08:07:14.769Z,98685.69
2023-03-17T08:09:42.788Z,98683.84
2023-03-17T08:12:10.908Z,98691.63
2023-03-17T08:14:38.479Z,98688.63
2023-03-17T08:17:06.522Z,98692.84
2023-03-17T08:19:34.181Z,98695.16
2023-03-17T08:22:01.616Z,98693.88
2023-03-17T08:24:29.530Z,98674.94
2023-03-17T08:26:58.119Z,98673.34
2023-03-17T08:29:28.503Z,98680.09
2023-03-17T08:31:56.093Z,98673.00
2023-03-17T08:34:24.409Z,98671.69
2023-03-17T08:36:51.872Z,98681.94
2023-03-17T08:39:20.634Z,98679.06
2023-03-17T08:41:48.004Z,98665.03
2023-03-17T08:44:16.713Z,98670.88
2023-03-17T08:46:44.116Z,98673.25
2023-03-17T08:49:13.003Z,98665.31
2023-03-17T08:51:40.959Z,98662.47
2023-03-17T08:54:08.829Z,98659.19
2023-03-17T08:56:37.174Z,98652.19
2023-03-17T08:59:07.190Z,98656.91
2023-03-17T09:01:35.033Z,98653.19
2023-03-17T09:04:03.319Z,98647.31
2023-03-17T09:06:31.707Z,98639.03
2023-03-17T09:09:00.477Z,98629.19
2023-03-17T09:11:31.601Z,98641.97
2023-03-17T09:14:00.240Z,98642.25
2023-03-17T09:16:29.017Z,98646.63
2023-03-17T09:18:56.721Z,98639.66
2023-03-17T09:21:24.040Z,98643.38
2023-03-17T09:23:51.634Z,98641.59
2023-03-17T09:26:20.306Z,98646.72
2023-03-17T09:28:47.948Z,98644.88
2023-03-17T09:31:15.721Z,98643.91
2023-03-17T09:33:43.960Z,98638.66
2023-03-17T09:36:11.455Z,98632.59
2023-03-17T09:38:39.717Z,98639.31
2023-03-17T09:41:53.828Z,98630.69
2023-03-17T09:44:38.630Z,98620.38
2023-03-17T09:47:43.649Z,98629.41
2023-03-17T09:50:22.747Z,98616.53
2023-03-17T09:52:52.404Z,98606.28
2023-03-17T09:55:32.973Z,98605.22
2023-03-17T09:58:03.605Z,98602.84
2023-03-17T10:00:31.892Z,98603.22
2023-03-17T10:03:00.304Z,98598.94
2023-03-17T10:05:36.867Z,98604.38
2023-03-17T10:08:35.839Z,98599.50
2023-03-17T10:11:16.951Z,98594.97
2023-03-17T10:14:09.536Z,98594.25
2023-03-17T10:17:09.405Z,98591.03
2023-03-17T10:19:47.648Z,98585.09
2023-03-17T10:22:28.038Z,98586.31
2023-03-17T10:25:04.090Z,98593.66
2023-03-17T10:27:37.623Z,98599.53
2023-03-17T10:30:21.275Z,98591.41
2023-03-17T10:32:50.514Z,98593.19
2023-03-17T10:35:19.027Z,98587.03
2023-03-17T10:37:48.385Z,98572.75
2023-03-17T10:40:28.868Z,98575.22
2023-03-17T10:43:07.813Z,98578.69
2023-03-17T10:45:43.301Z,98576.56
2023-03-17T10:48:20.323Z,98579.03
2023-03-17T10:50:49.535Z,98575.53
2023-03-17T10:53:30.602Z,98569.94
2023-03-17T10:56:10.474Z,98572.28
2023-03-17T10:58:49.198Z,98576.28
2023-03-17T11:01:39.777Z,98565.97
2023-03-17T11:04:35.834Z,98555.84
2023-03-17T11:07:20.455Z,98542.25
2023-03-17T11:09:57.376Z,98530.59
2023-03-17T11:12:40.132Z,98517.09
2023-03-17T11:15:17.861Z,98517.91
2023-03-17T11:18:03.451Z,98508.50
2023-03-17T11:20:54.852Z,98507.94
2023-03-17T11:23:50.152Z,98509.66
2023-03-17T11:26:54.742Z,98514.69
2023-03-17T11:29:39.919Z,98512.28
2023-03-17T11:32:32.545Z,98512.38
2023-03-17T11:35:24.012Z,98512.94
2023-03-17T11:38:21.322Z,98507.19
2023-03-17T11:41:27.287Z,98503.81
2023-03-17T11:44:22.183Z,98503.78
2023-03-17T11:47:31.937Z,98499.28
2023-03-17T11:50:18.661Z,98505.75
2023-03-17T11:53:11.643Z,98503.88
2023-03-17T11:56:06.770Z,98491.75
2023-03-17T11:58:42.608Z,98484.22
2023-03-17T12:01:44.266Z,98487.56
2023-03-17T12:04:25.957Z,98491.84
2023-03-17T12:07:04.559Z,98472.19
2023-03-17T12:09:47.408Z,98472.72
2023-03-17T12:12:28.163Z,98466.06
2023-03-17T12:14:59.661Z,98468.69
2023-03-17T12:17:50.952Z,98462.06
2023-03-17T12:20:31.632Z,98460.47
2023-03-17T12:23:30.168Z,98476.94
2023-03-17T12:26:07.560Z,98462.72
2023-03-17T12:28:48.625Z,98453.75
2023-03-17T12:31:32.008Z,98451.72
2023-03-17T12:34:28.859Z,98448.03
2023-03-17T12:36:56.359Z,98448.66
2023-03-17T12:39:35.146Z,98446.06
2023-03-17T12:42:36.574Z,98429.63
2023-03-17T12:45:22.502Z,98425.88
2023-03-17T12:48:21.495Z,98426.28
2023-03-17T12:51:12.543Z,98425.88
2023-03-17T12:53:45.114Z,98418.47
2023-03-17T12:56:19.326Z,98419.19
2023-03-17T12:58:51.829Z,98414.63
2023-03-17T13:01:32.946Z,98417.00
2023-03-17T13:04:14.015Z,98408.97
2023-03-17T13:06:53.679Z,98415.91
2023-03-17T13:09:45.283Z,98401.31
2023-03-17T13:12:41.668Z,98391.22
2023-03-17T13:15:38.209Z,98396.59
2023-03-17T13:18:17.801Z,98381.41
2023-03-17T13:20:57.510Z,98380.03
2023-03-17T13:24:15.881Z,98376.41
2023-03-17T13:27:02.140Z,98376.63
2023-03-17T13:29:35.582Z,98380.13
2023-03-17T13:32:26.818Z,98373.13
2023-03-17T13:35:02.276Z,98383.47
2023-03-17T13:37:58.925Z,98381.44
2023-03-17T13:41:07.105Z,98370.69
2023-03-17T13:44:26.773Z,98372.28
2023-03-17T13:46:54.858Z,98369.03
2023-03-17T13:49:32.563Z,98363.78
2023-03-17T13:52:13.654Z,98362.16
2023-03-17T13:55:19.027Z,98358.00
2023-03-17T13:58:11.159Z,98346.88
2023-03-17T14:00:49.483Z,98346.00
2023-03-17T14:03:43.918Z,98346.06
2023-03-17T14:06:14.425Z,98335.84
2023-03-17T14:08:55.083Z,98332.47
2023-03-17T14:11:35.569Z,98327.13
2023-03-17T14:14:33.041Z,98318.66
2023-03-17T14:17:12.424Z,98315.97
2023-03-17T14:19:41.894Z,98301.53
2023-03-17T14:22:45.916Z,98312.28
2023-03-17T14:25:21.656Z,98312.63
2023-03-17T14:27:57.018Z,98304.16
2023-03-17T14:30:33.156Z,98297.09
2023-03-17T14:33:20.571Z,98289.28
2023-03-17T14:35:53.937Z,98296.19
2023-03-17T14:38:31.304Z,98298.38
2023-03-17T14:41:07.995Z,98306.06
2023-03-17T14:43:36.905Z,98304.19
2023-03-17T14:46:08.183Z,98293.38
2023-03-17T14:48:40.352Z,98291.16
2023-03-17T14:51:14.501Z,98292.72
2023-03-17T14:53:46.573Z,98287.63
2023-03-17T14:56:14.698Z,98285.28
2023-03-17T14:58:48.612Z,98277.03
2023-03-17T15:01:32.540Z,98272.41
2023-03-17T15:04:06.319Z,98262.00
2023-03-17T15:06:37.424Z,98263.97
2023-03-17T15:09:38.566Z,98261.41
2023-03-17T15:12:26.712Z,98260.66
2023-03-17T15:15:00.842Z,98258.84
2023-03-17T15:17:34.857Z,98258.50
2023-03-17T15:20:07.615Z,98258.47
2023-03-17T15:22:35.369Z,98236.47
2023-03-17T15:25:17.439Z,98250.28
2023-03-17T15:27:45.842Z,98242.28
2023-03-17T15:30:14.857Z,98255.09
2023-03-17T15:32:42.790Z,98258.81
2023-03-17T15:35:14.592Z,98267.19
2023-03-17T15:37:42.828Z,98263.75
2023-03-17T15:40:11.367Z,98265.63
2023-03-17T15:42:39.870Z,98256.72
2023-03-17T15:45:08.625Z,98257.69
2023-03-17T15:47:40.035Z,98255.56
2023-03-17T15:50:30.331Z,98262.03
2023-03-17T15:52:58.121Z,98258.56
2023-03-17T15:55:31.194Z,98258.41
2023-03-17T15:57:59.814Z,98252.75
2023-03-17T16:00:30.356Z,98259.34
2023-03-17T16:03:18.833Z,98256.06
2023-03-17T16:05:46.645Z,98260.25
2023-03-17T16:08:15.760Z,98260.13
2023-03-17T16:10:43.401Z,98264.56
2023-03-17T16:13:11.926Z,98253.03
2023-03-17T16:15:43.435Z,98258.28
2023-03-17T16:18:18.347Z,98251.88
2023-03-17T16:20:52.435Z,98252.00
2023-03-17T16:23:27.202Z,98258.75
2023-03-17T16:25:59.273Z,98255.84
2023-03-17T16:28:33.045Z,98243.47
2023-03-17T16:31:04.033Z,98247.50
2023-03-17T16:33:40.403Z,98244.94
2023-03-17T16:36:14.646Z,98243.84
2023-03-17T16:38:42.745Z,98247.94
2023-03-17T16:41:21.714Z,98250.25
2023-03-17T16:43:59.599Z,98241.13
2023-03-17T16:46:33.360Z,98240.47
2023-03-17T16:49:02.282Z,98238.53
2023-03-17T16:51:29.650Z,98241.34
2023-03-17T16:53:57.288Z,98242.81
2023-03-17T16:56:27.581Z,98247.16
2023-03-17T16:58:55.300Z,98242.28
2023-03-17T17:01:27.370Z,98247.44
2023-03-17T17:03:56.112Z,98250.66
2023-03-17T17:06:24.452Z,98256.91
2023-03-17T17:08:52.985Z,98267.84
2023-03-17T17:11:21.514Z,98264.88
2023-03-17T17:13:50.167Z,98264.88
2023-03-17T17:16:32.165Z,98263.47
2023-03-17T17:19:01.334Z,98262.31
2023-03-17T17:21:29.119Z,98258.22
2023-03-17T17:23:57.093Z,98274.63
2023-03-17T17:26:24.447Z,98283.47
2023-03-17T17:28:52.209Z,98273.94
2023-03-17T17:31:19.688Z,98275.59
2023-03-17T17:33:47.346Z,98272.13
2023-03-17T17:36:17.608Z,98273.06
2023-03-17T17:38:45.452Z,98265.47
2023-03-17T17:41:14.334Z,98271.88
2023-03-17T17:43:42.141Z,98272.03
2023-03-17T17:46:17.234Z,98266.66
2023-03-17T17:48:45.393Z,98265.75
2023-03-17T17:51:12.870Z,98268.88
2023-03-17T17:53:41.005Z,98276.97
2023-03-17T17:56:14.228Z,98276.13
2023-03-17T17:58:43.134Z,98274.22
2023-03-17T18:01:14.026Z,98275.69
2023-03-17T18:03:43.086Z,98274.47
2023-03-17T18:06:13.185Z,98268.81
2023-03-17T18:08:41.557Z,98274.25
2023-03-17T18:11:09.209Z,98278.41
2023-03-17T18:13:39.088Z,98276.97
2023-03-17T18:16:10.158Z,98272.88
2023-03-17T18:18:40.736Z,98272.56
2023-03-17T18:21:08.977Z,98269.31
2023-03-17T18:23:36.727Z,98270.47
2023-03-17T18:26:08.881Z,98268.97
2023-03-17T18:28:36.829Z,98259.38
2023-03-17T18:31:11.905Z,98261.34
2023-03-17T18:33:43.564Z,98261.75
2023-03-17T18:36:11.780Z,98256.75
2023-03-17T18:38:40.525Z,98261.41
2023-03-17T18:41:08.534Z,98266.84
2023-03-17T18:43:36.220Z,98268.13
2023-03-17T18:46:04.364Z,98264.28
2023-03-17T18:48:32.012Z,98266.13
2023-03-17T18:50:59.355Z,98269.72
2023-03-17T18:53:27.151Z,98276.44
2023-03-17T18:55:54.407Z,98273.28
2023-03-17T18:58:21.984Z,98267.59
2023-03-17T19:00:50.372Z,98254.97
2023-03-17T19:03:18.842Z,98253.03
2023-03-17T19:05:46.287Z,98257.34
2023-03-17T19:08:16.131Z,98242.63
2023-03-17T19:10:44.824Z,98241.53
2023-03-17T19:13:14.302Z,98245.59
2023-03-17T19:15:42.166Z,98241.28
2023-03-17T19:18:09.861Z,98236.25
2023-03-17T19:20:37.957Z,98225.34
2023-03-17T19:23:06.023Z,98234.53
2023-03-17T19:25:33.606Z,98232.69
2023-03-17T19:28:03.287Z,98232.66
2023-03-17T19:30:31.432Z,98229.59
2023-03-17T19:32:59.299Z,98236.75
2023-03-17T19:35:27.262Z,98233.31
2023-03-17T19:37:54.907Z,98237.88
2023-03-17T19:40:22.565Z,98231.06
2023-03-17T19:42:51.171Z,98229.50
2023-03-17T19:45:18.690Z,98218.25
2023-03-17T19:47:47.133Z,98228.19
2023-03-17T19:50:14.874Z,98226.72
2023-03-17T19:52:42.610Z,98225.78
2023-03-17T19:55:10.829Z,98225.88
2023-03-17T19:57:39.061Z,98221.44
2023-03-17T20:00:08.972Z,98221.34
2023-03-17T20:02:36.848Z,98217.13
2023-03-17T20:05:04.764Z,98213.03
2023-03-17T20:07:33.097Z,98210.69
2023-03-17T20:10:01.478Z,98217.78
2023-03-17T20:12:32.964Z,98217.97
2023-03-17T20:15:01.575Z,98211.81
2023-03-17T20:17:29.277Z,98211.25
2023-03-17T20:19:56.658Z,98214.63
2023-03-17T20:22:24.743Z,98215.63
2023-03-17T20:24:52.248Z,98219.06
2023-03-17T20:27:20.597Z,98222.88
2023-03-17T20:29:48.689Z,98218.13
2023-03-17T20:32:17.402Z,98221.22
2023-03-17T20:34:45.171Z,98217.94
2023-03-17T20:37:14.296Z,98217.94
2023-03-17T20:39:42.426Z,98221.63
2023-03-17T20:42:14.577Z,98220.59
2023-03-17T20:44:43.039Z,98219.16
2023-03-17T20:47:11.496Z,98216.09
2023-03-17T20:49:39.471Z,98220.38
2023-03-17T20:52:08.571Z,98215.91
2023-03-17T20:54:36.097Z,98220.19
2023-03-17T20:57:04.878Z,98216.25
2023-03-17T20:59:33.807Z,98208.97
2023-03-17T21:02:02.501Z,98214.34
2023-03-17T21:04:29.933Z,98211.00
2023-03-17T21:06:57.595Z,98211.53
2023-03-17T21:09:25.014Z,98215.06
2023-03-17T21:11:52.619Z,98215.56
2023-03-17T21:14:19.951Z,98218.41
2023-03-17T21:16:47.940Z,98214.03
2023-03-17T21:19:17.249Z,98211.19
2023-03-17T21:21:45.800Z,98214.72
2023-03-17T21:24:35.058Z,98215.22
2023-03-17T21:27:06.589Z,98211.38
2023-03-17T21:29:36.233Z,98215.72
2023-03-17T21:32:07.275Z,98217.56
2023-03-17T21:34:35.616Z,98217.56
2023-03-17T21:37:03.380Z,98222.47
2023-03-17T21:39:30.886Z,98227.19
2023-03-17T21:41:58.488Z,98222.25
2023-03-17T21:44:26.573Z,98218.81
2023-03-17T21:46:56.586Z,98224.25
2023-03-17T21:49:24.914Z,98216.72
2023-03-17T21:51:52.331Z,98217.38
2023-03-17T21:54:20.646Z,98214.94
2023-03-17T21:56:49.562Z,98211.59
2023-03-17T21:59:19.121Z,98207.16
2023-03-17T22:01:47.379Z,98216.09
2023-03-17T22:04:15.635Z,98203.97
2023-03-17T22:06:43.461Z,98215.97
2023-03-17T22:09:11.139Z,98209.41
2023-03-17T22:11:38.528Z,98210.44
2023-03-17T22:14:06.608Z,98206.69
2023-03-17T22:16:34.136Z,98215.09
2023-03-17T22:19:01.969Z,98213.06
2023-03-17T22:21:29.237Z,98208.38
2023-03-17T22:23:57.115Z,98208.31
2023-03-17T22:26:24.391Z,98212.91
2023-03-17T22:28:52.126Z,98212.59
2023-03-17T22:31:27.313Z,98210.38
2023-03-17T22:33:58.326Z,98213.66
2023-03-17T22:36:27.188Z,98213.28
2023-03-17T22:38:56.242Z,98204.56
2023-03-17T22:41:27.235Z,98212.97
2023-03-17T22:43:55.246Z,98211.66
2023-03-17T22:46:22.830Z,98216.13
2023-03-17T22:48:51.877Z,98208.19
2023-03-17T22:51:23.570Z,98216.63
2023-03-17T22:53:52.194Z,98208.81
2023-03-17T22:56:20.448Z,98204.06
2023-03-17T22:58:48.992Z,98199.56
2023-03-17T23:01:18.398Z,98208.75
2023-03-17T23:03:47.193Z,98206.22
2023-03-17T23:06:15.155Z,98208.47
2023-03-17T23:08:44.401Z,98202.34
2023-03-17T23:11:18.674Z,98209.22
2023-03-17T23:13:47.802Z,98200.69
2023-03-17T23:16:15.993Z,98209.34
2023-03-17T23:18:46.867Z,98206.84
2023-03-17T23:21:30.606Z,98199.38
2023-03-17T23:23:59.625Z,98200.16
2023-03-17T23:26:28.786Z,98193.34
2023-03-17T23:28:56.675Z,98194.88
2023-03-17T23:31:24.887Z,98196.47
2023-03-17T23:33:52.804Z,98197.09
2023-03-17T23:36:21.478Z,98196.06
2023-03-17T23:38:49.987Z,98194.22
2023-03-17T23:41:17.751Z,98193.03
2023-03-17T23:43:46.880Z,98190.69
2023-03-17T23:46:14.813Z,98186.25
2023-03-17T23:48:43.111Z,98186.03
2023-03-17T23:51:12.568Z,98194.88
2023-03-17T23:53:41.807Z,98192.38
2023-03-17T23:56:11.569Z,98186.19
2023-03-17T23:58:43.410Z,98198.31
